createdAt,value
2023-03-03T00:02:19.216Z,1.83
2023-03-03T00:07:23.189Z,1.82
2023-03-03T00:12:28.062Z,1.68
2023-03-03T00:17:31.922Z,1.71
2023-03-03T00:22:37.130Z,1.50
2023-03-03T00:27:38.680Z,1.49
2023-03-03T00:32:50.294Z,1.69
2023-03-03T00:37:55.582Z,1.61
2023-03-03T00:43:00.208Z,1.83
2023-03-03T00:48:17.589Z,1.85
2023-03-03T00:53:20.959Z,1.55
2023-03-03T00:58:23.558Z,1.88
2023-03-03T01:03:26.814Z,1.67
2023-03-03T01:08:29.007Z,1.74
2023-03-03T01:13:32.214Z,1.67
2023-03-03T01:18:35.233Z,1.81
2023-03-03T01:23:36.961Z,1.67
2023-03-03T01:28:38.548Z,1.57
2023-03-03T01:33:40.181Z,1.63
2023-03-03T01:38:41.799Z,1.93
2023-03-03T01:43:46.689Z,1.54
2023-03-03T01:48:48.423Z,1.77
2023-03-03T01:53:52.768Z,1.70
2023-03-03T01:59:01.070Z,1.94
2023-03-03T02:04:02.699Z,2.13
2023-03-03T02:09:33.763Z,2.22
2023-03-03T02:14:35.473Z,1.83
2023-03-03T02:19:51.248Z,1.36
2023-03-03T02:24:57.603Z,1.58
2023-03-03T02:30:10.015Z,1.47
2023-03-03T02:35:34.006Z,1.48
2023-03-03T02:40:40.978Z,1.04
2023-03-03T02:45:44.360Z,1.03
2023-03-03T02:50:46.079Z,1.22
2023-03-03T02:55:48.082Z,1.31
2023-03-03T03:00:50.289Z,1.13
2023-03-03T03:05:57.872Z,1.55
2023-03-03T03:11:00.249Z,1.88
2023-03-03T03:16:02.793Z,1.85
2023-03-03T03:21:12.641Z,0.92
2023-03-03T03:26:15.578Z,0.73
2023-03-03T03:31:19.584Z,1.10
2023-03-03T03:36:21.818Z,1.61
2023-03-03T03:41:23.844Z,1.21
2023-03-03T03:46:25.504Z,1.09
2023-03-03T03:51:27.478Z,1.24
2023-03-03T03:56:29.162Z,0.92
2023-03-03T04:01:33.754Z,1.09
2023-03-03T04:06:35.742Z,0.82
2023-03-03T04:11:39.080Z,1.24
2023-03-03T04:16:42.672Z,0.83
2023-03-03T04:21:45.310Z,0.52
2023-03-03T04:26:47.009Z,0.90
2023-03-03T04:31:51.462Z,0.90
2023-03-03T04:36:54.109Z,1.05
2023-03-03T04:41:56.205Z,1.50
2023-03-03T04:46:58.367Z,0.98
2023-03-03T04:52:00.280Z,0.87
2023-03-03T04:57:02.254Z,1.12
2023-03-03T05:02:05.345Z,1.43
2023-03-03T05:07:06.996Z,0.96
2023-03-03T05:12:08.749Z,0.86
2023-03-03T05:17:10.331Z,0.78
2023-03-03T05:22:11.932Z,1.25
2023-03-03T05:27:13.553Z,1.20
2023-03-03T05:32:15.564Z,1.17
2023-03-03T05:37:17.220Z,1.38
2023-03-03T05:42:19.178Z,1.44
2023-03-03T05:47:20.786Z,0.90
2023-03-03T05:52:24.230Z,1.12
2023-03-03T05:57:25.864Z,0.97
2023-03-03T06:02:27.580Z,1.02
2023-03-03T06:07:29.184Z,1.16
2023-03-03T06:12:30.977Z,1.55
2023-03-03T06:17:32.534Z,1.33
2023-03-03T06:22:34.268Z,1.58
2023-03-03T06:27:35.889Z,1.45
2023-03-03T06:32:37.480Z,1.25
2023-03-03T06:37:39.164Z,1.24
2023-03-03T06:42:40.849Z,1.33
2023-03-03T06:47:42.523Z,1.41
2023-03-03T06:52:44.360Z,1.18
2023-03-03T06:57:45.935Z,1.37
2023-03-03T07:02:50.443Z,1.25
2023-03-03T07:07:52.006Z,1.83
2023-03-03T07:12:54.777Z,1.32
2023-03-03T07:18:00.202Z,1.29
2023-03-03T07:23:21.657Z,1.23
2023-03-03T07:28:25.750Z,1.44
2023-03-03T07:33:34.356Z,1.14
2023-03-03T07:38:42.885Z,1.54
2023-03-03T07:43:55.001Z,1.58
2023-03-03T07:48:58.356Z,1.78
2023-03-03T07:54:18.444Z,1.98
2023-03-03T07:59:25.333Z,1.88
2023-03-03T08:04:41.718Z,1.76
2023-03-03T08:09:44.970Z,1.54
2023-03-03T08:14:47.088Z,1.65
2023-03-03T08:19:50.057Z,1.86
2023-03-03T08:24:51.655Z,1.98
2023-03-03T08:29:53.281Z,1.82
2023-03-03T08:34:55.085Z,2.17
2023-03-03T08:39:56.810Z,2.12
2023-03-03T08:44:58.413Z,2.03
2023-03-03T08:49:59.993Z,2.12
2023-03-03T08:55:01.602Z,2.12
2023-03-03T09:00:03.383Z,2.04
2023-03-03T09:05:05.919Z,2.04
2023-03-03T09:10:08.170Z,2.07
2023-03-03T09:15:15.208Z,1.90
2023-03-03T09:20:29.020Z,1.50
2023-03-03T09:25:32.162Z,2.03
2023-03-03T09:30:38.619Z,1.60
2023-03-03T09:35:41.792Z,2.09
2023-03-03T09:40:45.991Z,2.08
2023-03-03T09:45:59.749Z,2.20
2023-03-03T09:51:08.347Z,1.92
2023-03-03T09:56:21.365Z,2.10
2023-03-03T10:02:00.649Z,2.36
2023-03-03T10:07:39.017Z,2.56
2023-03-03T10:13:12.875Z,2.28
2023-03-03T10:18:32.904Z,2.25
2023-03-03T10:23:56.220Z,2.23
2023-03-03T10:29:31.159Z,1.78
2023-03-03T10:34:41.495Z,2.50
2023-03-03T10:39:46.174Z,2.04
2023-03-03T10:45:21.224Z,2.36
2023-03-03T10:50:46.335Z,2.33
2023-03-03T10:56:11.048Z,2.49
2023-03-03T11:01:48.071Z,2.58
2023-03-03T11:06:55.721Z,2.52
2023-03-03T11:12:22.792Z,2.45
2023-03-03T11:17:39.376Z,2.13
2023-03-03T11:22:55.023Z,2.56
2023-03-03T11:28:17.172Z,2.58
2023-03-03T11:33:37.218Z,2.40
2023-03-03T11:38:57.422Z,2.42
2023-03-03T11:44:45.706Z,2.67
2023-03-03T11:50:00.412Z,2.61
2023-03-03T11:55:19.171Z,2.40
2023-03-03T12:00:42.525Z,2.35
2023-03-03T12:05:53.163Z,2.46
2023-03-03T12:11:25.963Z,2.36
2023-03-03T12:16:52.795Z,2.89
2023-03-03T12:22:06.959Z,3.03
2023-03-03T12:27:17.247Z,2.93
2023-03-03T12:32:28.049Z,3.02
2023-03-03T12:38:07.814Z,3.12
2023-03-03T12:43:35.354Z,3.25
2023-03-03T12:48:37.047Z,2.92
2023-03-03T12:53:38.566Z,3.14
2023-03-03T12:58:48.741Z,3.37
2023-03-03T13:04:08.872Z,3.05
2023-03-03T13:09:37.308Z,3.36
2023-03-03T13:14:54.190Z,3.34
2023-03-03T13:20:00.976Z,3.46
2023-03-03T13:25:27.049Z,3.47
2023-03-03T13:30:33.644Z,2.73
2023-03-03T13:35:41.795Z,3.28
2023-03-03T13:40:46.611Z,3.20
2023-03-03T13:46:26.167Z,3.59
2023-03-03T13:51:43.052Z,3.13
2023-03-03T13:57:02.838Z,3.38
2023-03-03T14:02:29.727Z,3.14
2023-03-03T14:07:59.961Z,3.34
2023-03-03T14:13:13.254Z,3.33
2023-03-03T14:18:29.331Z,3.40
2023-03-03T14:23:50.621Z,3.27
2023-03-03T14:29:05.110Z,3.37
2023-03-03T14:34:09.484Z,3.56
2023-03-03T14:39:38.808Z,3.39
2023-03-03T14:44:46.361Z,3.50
2023-03-03T14:49:48.265Z,2.83
2023-03-03T14:54:56.050Z,3.17
2023-03-03T15:00:01.195Z,3.40
2023-03-03T15:05:16.799Z,3.57
2023-03-03T15:10:31.302Z,3.43
2023-03-03T15:15:32.928Z,2.90
2023-03-03T15:21:04.050Z,3.10
2023-03-03T15:26:19.629Z,3.47
2023-03-03T15:31:51.762Z,3.22
2023-03-03T15:36:57.235Z,3.24
2023-03-03T15:42:15.800Z,3.14
2023-03-03T15:47:46.608Z,3.30
2023-03-03T15:52:53.085Z,3.15
2023-03-03T15:58:42.737Z,3.28
2023-03-03T16:03:48.460Z,2.94
2023-03-03T16:08:52.869Z,3.31
2023-03-03T16:14:01.738Z,2.89
2023-03-03T16:19:14.066Z,3.22
2023-03-03T16:24:41.083Z,3.25
2023-03-03T16:29:57.715Z,3.27
2023-03-03T16:35:18.105Z,3.31
2023-03-03T16:40:23.991Z,3.14
2023-03-03T16:45:34.638Z,3.08
2023-03-03T16:51:02.477Z,2.81
2023-03-03T16:56:06.723Z,2.87
2023-03-03T17:01:25.344Z,2.94
2023-03-03T17:06:35.787Z,3.03
2023-03-03T17:12:00.640Z,2.93
2023-03-03T17:17:12.162Z,2.99
2023-03-03T17:22:21.198Z,2.91
2023-03-03T17:27:40.904Z,2.87
2023-03-03T17:33:17.210Z,2.96
2023-03-03T17:38:55.412Z,3.01
2023-03-03T17:44:02.724Z,2.98
2023-03-03T17:49:25.825Z,3.10
2023-03-03T17:54:33.141Z,2.90
2023-03-03T18:00:01.079Z,2.97
2023-03-03T18:05:18.944Z,3.08
2023-03-03T18:10:39.039Z,3.01
2023-03-03T18:16:11.290Z,2.92
2023-03-03T18:21:22.349Z,2.85
2023-03-03T18:26:33.756Z,2.75
2023-03-03T18:31:52.535Z,2.74
2023-03-03T18:36:56.165Z,2.94
2023-03-03T18:42:05.804Z,2.67
2023-03-03T18:47:07.636Z,2.88
2023-03-03T18:52:38.672Z,2.72
2023-03-03T18:57:40.292Z,2.77
2023-03-03T19:02:52.122Z,2.97
2023-03-03T19:07:58.212Z,2.81
2023-03-03T19:13:00.082Z,2.98
2023-03-03T19:18:03.707Z,3.04
2023-03-03T19:23:07.406Z,2.94
2023-03-03T19:28:11.742Z,3.14
2023-03-03T19:33:23.414Z,2.93
2023-03-03T19:38:56.415Z,3.14
2023-03-03T19:44:42.862Z,3.05
2023-03-03T19:49:57.704Z,2.91
2023-03-03T19:55:02.242Z,3.14
2023-03-03T20:00:32.662Z,2.93
2023-03-03T20:05:46.209Z,3.16
2023-03-03T20:10:48.663Z,3.10
2023-03-03T20:16:03.477Z,3.11
2023-03-03T20:21:20.315Z,3.25
2023-03-03T20:26:27.232Z,3.28
2023-03-03T20:32:06.745Z,3.09
2023-03-03T20:37:38.717Z,3.28
2023-03-03T20:42:52.844Z,3.08
2023-03-03T20:48:32.304Z,3.11
2023-03-03T20:53:39.511Z,2.98
2023-03-03T20:58:56.360Z,2.99
2023-03-03T21:04:19.880Z,3.08
2023-03-03T21:09:26.727Z,3.02
2023-03-03T21:14:35.751Z,3.26
2023-03-03T21:19:37.449Z,3.15
2023-03-03T21:24:56.609Z,3.05
2023-03-03T21:30:17.164Z,3.29
2023-03-03T21:35:23.471Z,3.19
2023-03-03T21:40:29.442Z,3.34
2023-03-03T21:45:31.061Z,3.28
2023-03-03T21:50:35.541Z,3.43
2023-03-03T21:55:37.117Z,3.36
2023-03-03T22:00:39.783Z,3.17
2023-03-03T22:05:41.727Z,3.38
2023-03-03T22:10:43.368Z,3.29
2023-03-03T22:15:44.957Z,3.18
2023-03-03T22:20:48.073Z,3.42
2023-03-03T22:25:49.832Z,3.45
2023-03-03T22:30:51.481Z,3.55
2023-03-03T22:35:53.154Z,3.40
2023-03-03T22:40:55.719Z,3.35
2023-03-03T22:45:57.777Z,3.50
2023-03-03T22:50:59.457Z,3.30
2023-03-03T22:56:01.309Z,3.52
2023-03-03T23:01:04.720Z,3.55
2023-03-03T23:06:06.616Z,3.27
2023-03-03T23:11:08.267Z,3.60
2023-03-03T23:16:09.936Z,3.62
2023-03-03T23:21:11.622Z,3.45
2023-03-03T23:26:13.274Z,3.53
2023-03-03T23:31:14.914Z,3.33
2023-03-03T23:36:16.606Z,3.41
2023-03-03T23:41:18.214Z,3.45
2023-03-03T23:46:19.780Z,3.54
2023-03-03T23:51:21.378Z,3.47
2023-03-03T23:56:23.004Z,3.51
